Time;durP1;ratioP1;P1;durP2;ratioP2;P2;SDS_P1;SDS_P2;PMS_P1;PMS_P2;Temp;Humidity;BMP_temperature;BMP_pressure;BME280_temperature;BME280_humidity;BME280_pressure;Samples;Min_cycle;Max_cycle;Signal;HPM_P1;HPM_P2
2022/04/21 00:00:18;;;;;;;8.73;5.75;;;16.30;96.70;;;;;;5021153;28;20045;-84
2022/04/21 00:02:46;;;;;;;11.18;6.13;;;16.20;96.70;;;;;;5021467;28;20049;-84
2022/04/21 00:05:32;;;;;;;9.18;5.90;;;16.20;96.70;;;;;;5006405;28;20045;-84
2022/04/21 00:08:02;;;;;;;10.02;5.75;;;16.10;96.70;;;;;;5014611;28;20050;-84
2022/04/21 00:10:30;;;;;;;11.60;5.43;;;16.20;96.70;;;;;;5015545;28;20053;-84
2022/04/21 00:12:58;;;;;;;10.50;5.50;;;16.30;96.70;;;;;;5017398;28;20052;-84
2022/04/21 00:15:27;;;;;;;9.27;5.10;;;16.40;96.70;;;;;;5024777;28;20100;-84
2022/04/21 00:17:57;;;;;;;12.77;5.20;;;16.40;96.70;;;;;;5019727;28;20045;-84
2022/04/21 00:20:25;;;;;;;10.40;5.50;;;16.40;96.70;;;;;;5013305;28;20472;-84
2022/04/21 00:25:41;;;;;;;11.40;5.65;;;16.40;96.70;;;;;;5016885;28;20107;-84
2022/04/21 00:28:09;;;;;;;9.98;5.50;;;16.40;96.70;;;;;;5017793;28;20196;-84
2022/04/21 00:30:37;;;;;;;10.73;4.60;;;16.40;96.70;;;;;;5018127;28;20597;-84
2022/04/21 00:33:05;;;;;;;11.57;4.95;;;16.50;96.70;;;;;;5020588;28;20044;-83
2022/04/21 00:35:33;;;;;;;10.25;5.35;;;16.50;96.70;;;;;;5010474;28;20029;-84
2022/04/21 00:38:01;;;;;;;12.10;5.68;;;16.50;96.70;;;;;;5016588;28;20104;-84
2022/04/21 00:40:30;;;;;;;11.45;5.82;;;16.40;96.70;;;;;;5014961;28;20503;-84
2022/04/21 00:43:00;;;;;;;14.75;5.70;;;16.40;96.70;;;;;;5012861;28;20381;-84
2022/04/21 00:45:29;;;;;;;11.82;5.50;;;16.30;96.70;;;;;;5035897;28;20050;-84
2022/04/21 00:47:58;;;;;;;10.10;4.93;;;16.30;96.70;;;;;;5014521;28;20045;-84
2022/04/21 00:50:30;;;;;;;11.73;6.13;;;16.30;96.70;;;;;;5002553;28;20151;-84
2022/04/21 00:52:58;;;;;;;14.13;6.45;;;16.20;96.70;;;;;;5018303;28;20045;-84
2022/04/21 00:55:26;;;;;;;11.45;5.80;;;16.20;96.70;;;;;;5026189;28;20058;-84
2022/04/21 00:57:55;;;;;;;8.95;5.50;;;16.20;96.70;;;;;;5014712;28;20914;-84
2022/04/21 01:00:24;;;;;;;11.80;5.20;;;16.20;96.70;;;;;;5026257;28;20470;-83
2022/04/21 01:02:52;;;;;;;11.88;5.88;;;16.30;96.70;;;;;;5012612;28;20053;-84
2022/04/21 01:05:28;;;;;;;11.65;5.78;;;16.30;96.70;;;;;;5002437;28;20054;-84
2022/04/21 01:07:59;;;;;;;9.52;5.30;;;16.30;96.70;;;;;;5041917;28;20099;-83
2022/04/21 01:10:27;;;;;;;11.07;5.57;;;16.30;96.70;;;;;;5014820;28;20060;-83
2022/04/21 01:12:56;;;;;;;10.50;5.63;;;16.20;96.70;;;;;;5024553;28;20403;-82
2022/04/21 01:15:26;;;;;;;10.23;5.50;;;16.20;96.70;;;;;;5017382;28;20049;-83
2022/04/21 01:17:55;;;;;;;11.18;5.88;;;16.10;96.70;;;;;;5008877;28;20054;-83
2022/04/21 01:20:25;;;;;;;8.50;5.10;;;16.10;96.70;;;;;;5022206;28;20046;-83
2022/04/21 01:22:54;;;;;;;8.77;5.43;;;16.20;96.70;;;;;;5023919;28;20049;-83
2022/04/21 01:25:23;;;;;;;10.07;5.07;;;16.20;96.70;;;;;;5021096;28;20132;-82
2022/04/21 01:27:53;;;;;;;10.48;5.75;;;16.20;96.70;;;;;;5018834;28;20046;-83
2022/04/21 01:30:21;;;;;;;9.23;5.70;;;16.10;96.70;;;;;;5027529;28;20048;-83
2022/04/21 01:32:49;;;;;;;9.05;5.65;;;16.10;96.70;;;;;;5026761;28;20120;-83
2022/04/21 01:35:17;;;;;;;8.65;5.40;;;16.10;96.70;;;;;;5024314;28;20060;-83
2022/04/21 01:43:19;;;;;;;10.43;5.88;;;16.20;96.70;;;;;;5025189;28;20029;-84
2022/04/21 01:45:47;;;;;;;10.25;5.65;;;16.20;96.70;;;;;;5025053;28;20053;-83
2022/04/21 01:48:15;;;;;;;16.05;6.57;;;16.10;96.70;;;;;;5023050;28;20521;-83
2022/04/21 01:50:43;;;;;;;11.95;5.97;;;16.10;96.70;;;;;;5026670;28;20052;-83
2022/04/21 01:53:12;;;;;;;10.75;6.38;;;16.10;96.70;;;;;;5020894;28;20046;-83
2022/04/21 01:55:40;;;;;;;9.65;5.75;;;16.00;96.70;;;;;;5020600;28;20042;-83
2022/04/21 01:58:08;;;;;;;9.65;6.00;;;15.90;96.70;;;;;;5018864;28;20061;-83
2022/04/21 02:00:36;;;;;;;11.70;6.18;;;15.90;96.70;;;;;;5008380;28;20140;-83
2022/04/21 02:03:04;;;;;;;11.77;6.38;;;16.00;96.70;;;;;;5021625;28;20168;-83
2022/04/21 02:05:33;;;;;;;10.38;6.68;;;15.90;96.70;;;;;;5016187;28;20133;-83
2022/04/21 02:08:01;;;;;;;9.98;5.82;;;15.90;96.70;;;;;;5023621;28;20501;-82
2022/04/21 02:10:30;;;;;;;9.27;5.25;;;15.90;96.70;;;;;;5018033;28;20509;-83
2022/04/21 02:12:59;;;;;;;7.05;4.60;;;15.90;96.70;;;;;;5041324;28;20050;-84
2022/04/21 02:15:27;;;;;;;11.32;5.35;;;15.90;96.70;;;;;;5008993;28;20045;-84
2022/04/21 02:17:55;;;;;;;8.23;5.28;;;15.90;96.70;;;;;;5015861;28;20474;-83
2022/04/21 02:20:23;;;;;;;7.57;5.00;;;15.90;96.70;;;;;;5014109;28;20498;-83
2022/04/21 02:22:51;;;;;;;7.90;5.65;;;15.90;96.70;;;;;;5020289;28;20046;-83
2022/04/21 02:25:19;;;;;;;10.68;5.88;;;15.90;96.70;;;;;;5017295;28;20068;-83
2022/04/21 02:27:52;;;;;;;8.75;6.15;;;15.90;96.70;;;;;;5019103;28;20054;-84
2022/04/21 02:30:20;;;;;;;8.52;6.40;;;15.80;96.70;;;;;;5017050;28;20049;-83
2022/04/21 02:32:48;;;;;;;8.18;6.32;;;15.70;96.70;;;;;;5023619;28;20127;-84
2022/04/21 02:35:16;;;;;;;9.98;6.72;;;15.70;96.70;;;;;;5022698;28;20041;-83
2022/04/21 02:37:46;;;;;;;8.35;6.32;;;15.70;96.70;;;;;;5023503;28;20045;-83
2022/04/21 02:40:15;;;;;;;7.93;6.10;;;15.60;96.70;;;;;;5035187;28;20045;-83
2022/04/21 02:42:43;;;;;;;7.63;6.32;;;15.50;96.70;;;;;;5012000;28;20124;-83
2022/04/21 02:45:14;;;;;;;11.38;6.82;;;15.40;96.70;;;;;;5015919;28;20195;-84
2022/04/21 02:47:43;;;;;;;9.38;6.63;;;15.40;96.70;;;;;;5018821;28;20048;-83
2022/04/21 02:50:13;;;;;;;8.15;6.38;;;15.40;96.70;;;;;;5018764;28;20057;-83
2022/04/21 02:52:42;;;;;;;8.75;6.53;;;15.40;96.70;;;;;;5015763;28;20046;-83
2022/04/21 02:57:57;;;;;;;;;;;15.40;96.70;;;;;;5017897;28;20068;-83
2022/04/21 03:00:27;;;;;;;9.00;6.43;;;15.30;96.70;;;;;;5019522;28;19947;-83
2022/04/21 03:02:56;;;;;;;9.15;6.70;;;15.30;96.70;;;;;;5006233;28;20458;-83
2022/04/21 03:05:24;;;;;;;8.25;6.10;;;15.30;96.70;;;;;;5034381;28;20072;-83
2022/04/21 03:07:54;;;;;;;7.75;6.60;;;15.30;96.70;;;;;;5037706;28;20077;-83
2022/04/21 03:10:21;;;;;;;11.55;7.22;;;15.20;96.70;;;;;;5019915;28;20111;-83
2022/04/21 03:12:50;;;;;;;7.13;6.05;;;15.20;96.70;;;;;;5028947;28;20052;-84
2022/04/21 03:15:18;;;;;;;8.38;6.25;;;15.20;96.70;;;;;;5012874;28;20065;-83
2022/04/21 03:17:47;;;;;;;8.70;6.43;;;15.20;96.70;;;;;;5021262;28;20057;-83
2022/04/21 03:25:48;;;;;;;9.83;6.70;;;15.20;96.70;;;;;;5040177;28;20045;-82
2022/04/21 03:28:16;;;;;;;6.45;5.72;;;15.20;96.70;;;;;;5017012;28;20056;-82
2022/04/21 03:30:46;;;;;;;8.68;5.85;;;15.20;96.70;;;;;;5039006;28;20049;-83
2022/04/21 03:33:15;;;;;;;6.43;5.80;;;15.20;96.70;;;;;;5020867;28;20060;-83
2022/04/21 03:35:43;;;;;;;7.50;5.35;;;15.20;96.70;;;;;;5016524;28;20081;-83
2022/04/21 03:38:11;;;;;;;8.55;6.03;;;15.20;96.70;;;;;;5005166;28;20581;-83
2022/04/21 03:40:40;;;;;;;8.90;5.70;;;15.20;96.70;;;;;;5018797;28;20094;-82
2022/04/21 03:43:08;;;;;;;7.55;6.28;;;15.20;96.70;;;;;;5021021;28;20150;-82
2022/04/21 03:45:36;;;;;;;8.35;6.28;;;15.20;96.70;;;;;;5016353;28;20145;-83
2022/04/21 03:48:05;;;;;;;7.40;5.75;;;15.10;96.70;;;;;;5015382;28;20495;-82
2022/04/21 03:50:35;;;;;;;8.18;6.30;;;15.20;96.70;;;;;;5017305;28;20064;-83
2022/04/21 03:53:04;;;;;;;6.53;5.85;;;15.20;96.70;;;;;;5041995;28;20470;-83
2022/04/21 03:55:32;;;;;;;7.50;5.70;;;15.20;96.70;;;;;;5015142;28;21455;-82
2022/04/21 03:58:01;;;;;;;6.57;5.88;;;15.20;96.70;;;;;;5016191;28;20422;-82
2022/04/21 04:00:32;;;;;;;6.40;5.75;;;15.20;96.70;;;;;;5004141;28;20049;-81
2022/04/21 04:03:00;;;;;;;6.10;5.35;;;15.20;96.70;;;;;;5015116;28;20048;-82
2022/04/21 04:05:28;;;;;;;6.25;5.10;;;15.30;96.70;;;;;;5023205;28;20127;-83
2022/04/21 04:10:53;;;;;;;8.48;5.50;;;15.30;96.70;;;;;;5010125;28;20124;-83
2022/04/21 04:13:21;;;;;;;6.75;5.28;;;15.30;96.70;;;;;;5009717;28;20446;-82
2022/04/21 04:15:51;;;;;;;7.40;5.57;;;15.30;96.70;;;;;;5007328;28;20049;-82
2022/04/21 04:18:20;;;;;;;6.50;5.50;;;15.20;96.70;;;;;;5015430;28;20052;-82
2022/04/21 04:20:49;;;;;;;6.13;5.40;;;15.20;96.70;;;;;;5003150;28;20049;-83
2022/04/21 04:23:19;;;;;;;6.63;5.93;;;15.20;96.70;;;;;;5033546;28;20464;-82
2022/04/21 04:25:47;;;;;;;6.30;5.70;;;15.20;96.70;;;;;;5011037;28;20124;-82
2022/04/21 04:28:15;;;;;;;6.18;5.57;;;15.30;96.70;;;;;;5012832;28;20037;-82
2022/04/21 04:30:43;;;;;;;6.88;5.70;;;15.30;96.70;;;;;;5016237;28;20210;-82
2022/04/21 04:33:11;;;;;;;6.45;5.43;;;15.20;96.70;;;;;;5020705;28;20045;-83
2022/04/21 04:35:39;;;;;;;7.50;5.40;;;15.20;96.70;;;;;;5016912;28;20076;-83
2022/04/21 04:38:07;;;;;;;6.95;5.57;;;15.20;96.70;;;;;;5021879;28;20049;-83
2022/04/21 04:40:37;;;;;;;5.68;5.10;;;15.20;96.70;;;;;;5010647;28;20091;-83
2022/04/21 04:43:05;;;;;;;6.88;5.65;;;15.20;96.70;;;;;;5023564;28;20136;-82
2022/04/21 04:48:20;;;;;;;7.13;5.68;;;15.10;96.70;;;;;;5004667;28;20472;-85
2022/04/21 04:50:48;;;;;;;7.43;5.38;;;15.10;96.70;;;;;;5013458;28;20041;-82
2022/04/21 04:53:16;;;;;;;6.72;5.90;;;15.20;96.70;;;;;;5002275;28;20799;-83
2022/04/21 04:55:46;;;;;;;6.63;5.22;;;15.20;96.70;;;;;;5011655;28;20050;-82
2022/04/21 04:58:14;;;;;;;5.97;5.10;;;15.10;96.70;;;;;;5018600;28;20423;-83
2022/04/21 05:00:46;;;;;;;6.28;5.63;;;15.10;96.70;;;;;;5010360;28;20104;-82
2022/04/21 05:03:17;;;;;;;6.93;5.50;;;15.00;96.70;;;;;;5008915;28;20050;-82
2022/04/21 05:05:46;;;;;;;6.10;5.50;;;15.10;96.70;;;;;;5018275;28;20129;-82
2022/04/21 05:08:14;;;;;;;7.18;6.07;;;15.00;96.70;;;;;;5011980;28;20554;-82
2022/04/21 05:10:42;;;;;;;6.93;6.13;;;15.10;96.70;;;;;;5019480;28;20046;-83
2022/04/21 05:13:11;;;;;;;6.45;5.75;;;15.10;96.70;;;;;;4994069;28;21158;-82
2022/04/21 05:15:39;;;;;;;7.70;5.82;;;15.20;96.70;;;;;;5035399;28;20051;-83
2022/04/21 05:18:08;;;;;;;6.53;5.40;;;15.10;96.70;;;;;;5020974;28;20049;-84
2022/04/21 05:20:37;;;;;;;7.75;5.78;;;15.10;96.70;;;;;;5039780;28;20045;-82
2022/04/21 05:23:06;;;;;;;6.45;5.55;;;15.10;96.70;;;;;;5019883;28;20057;-83
2022/04/21 05:25:36;;;;;;;6.68;5.35;;;15.10;96.70;;;;;;5009265;28;20072;-82
2022/04/21 05:28:07;;;;;;;7.70;5.95;;;15.10;96.70;;;;;;5011989;28;20120;-83
2022/04/21 05:30:58;;;;;;;6.80;5.60;;;15.00;96.70;;;;;;5007118;28;20526;-82
2022/04/21 05:33:28;;;;;;;6.70;5.00;;;15.00;96.70;;;;;;5011607;28;20411;-83
2022/04/21 05:35:58;;;;;;;8.27;5.35;;;15.00;96.70;;;;;;5029877;28;20807;-82
2022/04/21 05:38:28;;;;;;;9.18;6.03;;;15.10;96.70;;;;;;5007780;28;20050;-81
2022/04/21 05:40:57;;;;;;;7.63;6.05;;;15.20;96.70;;;;;;5010205;28;20050;-82
2022/04/21 05:43:30;;;;;;;7.25;6.30;;;15.10;96.70;;;;;;5016030;28;20074;-82
2022/04/21 05:46:00;;;;;;;7.63;6.03;;;15.20;96.70;;;;;;5018751;28;20138;-82
2022/04/21 05:48:29;;;;;;;5.97;5.38;;;15.20;96.70;;;;;;5012092;28;20077;-82
2022/04/21 05:50:59;;;;;;;7.47;6.00;;;15.30;96.70;;;;;;5016894;28;20493;-82
2022/04/21 05:53:28;;;;;;;7.13;5.32;;;15.30;96.70;;;;;;5019478;28;20041;-83
2022/04/21 05:55:56;;;;;;;6.10;5.20;;;15.30;96.70;;;;;;5021925;28;20773;-81
2022/04/21 05:58:25;;;;;;;8.07;5.80;;;15.30;96.70;;;;;;5013340;28;20084;-86
2022/04/21 06:00:53;;;;;;;7.05;5.60;;;15.40;96.70;;;;;;5026978;28;20148;-86
2022/04/21 06:03:29;;;;;;;6.35;5.03;;;15.30;96.70;;;;;;5019556;28;20045;-89
2022/04/21 06:05:57;;;;;;;6.00;5.22;;;15.30;96.70;;;;;;5024884;28;20096;-83
2022/04/21 06:08:25;;;;;;;5.38;4.88;;;15.40;96.70;;;;;;5020822;28;20118;-83
2022/04/21 06:10:56;;;;;;;5.60;5.00;;;15.30;96.70;;;;;;4989989;28;20048;-85
2022/04/21 06:13:24;;;;;;;6.53;4.82;;;15.30;96.70;;;;;;5022918;28;20514;-87
2022/04/21 06:15:52;;;;;;;8.80;5.35;;;15.30;96.70;;;;;;5022002;28;20053;-87
2022/04/21 06:18:21;;;;;;;5.50;4.70;;;15.30;96.70;;;;;;5018546;28;20148;-88
2022/04/21 06:20:50;;;;;;;4.78;4.38;;;15.30;96.70;;;;;;5011970;28;20041;-88
2022/04/21 06:23:19;;;;;;;4.30;3.90;;;15.30;96.70;;;;;;5027305;28;20518;-88
2022/04/21 06:25:47;;;;;;;4.93;3.83;;;15.30;96.70;;;;;;5017635;28;20042;-89
2022/04/21 06:28:16;;;;;;;4.18;3.42;;;15.20;96.70;;;;;;5020318;28;20038;-84
2022/04/21 06:30:44;;;;;;;5.13;3.83;;;15.20;96.70;;;;;;5024736;28;20566;-87
2022/04/21 06:33:16;;;;;;;4.68;3.95;;;15.20;96.70;;;;;;4995609;28;20046;-88
2022/04/21 06:35:44;;;;;;;3.85;3.42;;;15.20;96.70;;;;;;5016320;28;20411;-85
2022/04/21 06:38:14;;;;;;;5.93;3.08;;;15.20;96.70;;;;;;5000810;28;20060;-86
2022/04/21 06:40:42;;;;;;;4.13;2.83;;;15.20;96.70;;;;;;5016028;28;20037;-88
2022/04/21 06:48:44;;;;;;;3.47;3.17;;;15.20;96.70;;;;;;5029070;28;20037;-87
2022/04/21 06:51:12;;;;;;;4.03;2.92;;;15.30;96.70;;;;;;5015596;28;20050;-87
2022/04/21 06:53:42;;;;;;;3.20;2.90;;;15.40;96.70;;;;;;5039467;28;20521;-88
2022/04/21 06:56:12;;;;;;;3.00;2.67;;;15.40;96.70;;;;;;5026876;28;20053;-86
2022/04/21 06:58:40;;;;;;;4.53;2.50;;;15.50;96.70;;;;;;5027414;28;20156;-87
2022/04/21 07:01:08;;;;;;;3.00;2.70;;;15.50;96.70;;;;;;5021953;28;20153;-87
2022/04/21 07:03:36;;;;;;;2.83;2.53;;;15.50;96.70;;;;;;5018298;28;20057;-86
2022/04/21 07:06:05;;;;;;;2.97;2.58;;;15.40;96.70;;;;;;5015342;28;20046;-88
2022/04/21 07:08:34;;;;;;;3.22;2.40;;;15.50;96.70;;;;;;5040752;28;20116;-88
2022/04/21 07:11:04;;;;;;;2.88;2.58;;;15.50;96.70;;;;;;5041984;28;20049;-89
2022/04/21 07:13:32;;;;;;;3.63;1.98;;;15.60;96.70;;;;;;5027196;28;20045;-88
2022/04/21 07:16:00;;;;;;;2.92;2.45;;;15.60;96.70;;;;;;5019658;28;20593;-89
2022/04/21 07:18:29;;;;;;;3.28;2.63;;;15.60;96.70;;;;;;5010524;28;20041;-89
2022/04/21 07:21:00;;;;;;;3.20;2.10;;;15.60;96.70;;;;;;5010884;28;20046;-89
2022/04/21 07:23:29;;;;;;;3.38;2.67;;;15.70;96.70;;;;;;5023276;28;20048;-89
2022/04/21 07:25:57;;;;;;;2.30;2.08;;;15.80;96.70;;;;;;5023095;28;20049;-85
2022/04/21 07:28:26;;;;;;;2.67;2.47;;;15.70;96.70;;;;;;5025447;28;20037;-87
2022/04/21 07:30:54;;;;;;;3.17;2.17;;;15.80;96.70;;;;;;5014410;28;20042;-86
2022/04/21 07:33:23;;;;;;;2.47;1.95;;;15.90;96.70;;;;;;5013999;28;20033;-86
2022/04/21 07:35:51;;;;;;;3.63;2.50;;;16.00;96.70;;;;;;5011524;28;20050;-87
2022/04/21 07:38:21;;;;;;;2.17;1.90;;;16.00;96.70;;;;;;5015685;28;20060;-86
2022/04/21 07:40:53;;;;;;;3.03;2.50;;;16.10;96.70;;;;;;5020027;28;20076;-86
2022/04/21 07:43:22;;;;;;;2.17;1.70;;;16.10;96.70;;;;;;5010773;28;20049;-86
2022/04/21 07:45:52;;;;;;;2.60;1.92;;;16.20;96.70;;;;;;5009545;28;20054;-86
2022/04/21 07:48:20;;;;;;;2.00;1.20;;;16.30;96.70;;;;;;5037777;28;20729;-85
2022/04/21 07:50:49;;;;;;;1.95;1.50;;;16.40;96.70;;;;;;5017372;28;20049;-85
2022/04/21 07:53:21;;;;;;;1.40;1.30;;;16.40;96.70;;;;;;5020727;28;20049;-84
2022/04/21 07:55:50;;;;;;;1.90;1.45;;;16.60;96.70;;;;;;5016820;28;20048;-85
2022/04/21 07:58:18;;;;;;;1.80;1.17;;;16.60;96.70;;;;;;5016885;28;20087;-85
2022/04/21 08:00:47;;;;;;;1.55;1.35;;;16.50;96.70;;;;;;5036408;28;20041;-86
2022/04/21 08:03:19;;;;;;;2.78;1.30;;;16.60;96.70;;;;;;5002478;28;20045;-89
2022/04/21 08:05:48;;;;;;;2.00;1.35;;;16.70;96.70;;;;;;5015931;28;20321;-89
2022/04/21 08:08:16;;;;;;;2.55;1.40;;;16.80;96.70;;;;;;5024567;28;20076;-89
2022/04/21 08:10:44;;;;;;;2.38;1.80;;;16.70;96.70;;;;;;5019747;28;20095;-89
2022/04/21 08:13:17;;;;;;;2.22;1.77;;;16.90;96.70;;;;;;5030569;28;20395;-88
2022/04/21 08:15:48;;;;;;;2.80;1.45;;;17.00;96.70;;;;;;5001718;28;20052;-89
2022/04/21 08:18:18;;;;;;;2.65;1.63;;;17.00;96.70;;;;;;5026743;28;20157;-89
2022/04/21 08:20:48;;;;;;;2.60;1.65;;;17.10;96.70;;;;;;5023033;28;20109;-90
2022/04/21 08:23:16;;;;;;;2.05;1.70;;;17.20;96.70;;;;;;5014453;28;20052;-88
2022/04/21 08:34:30;;;;;;;;;;;17.60;96.70;;;;;;5027226;28;20522;-90
2022/04/21 08:36:58;;;;;;;1.70;1.52;;;17.60;96.70;;;;;;5016238;28;19976;-90
2022/04/21 08:39:26;;;;;;;2.45;2.10;;;17.60;96.70;;;;;;5024514;28;20045;-91
2022/04/21 08:42:00;;;;;;;2.42;2.10;;;17.60;96.70;;;;;;4993444;28;20045;-90
2022/04/21 08:44:31;;;;;;;3.10;1.92;;;17.70;96.70;;;;;;5040954;28;20107;-89
2022/04/21 08:47:02;;;;;;;2.85;2.00;;;17.60;96.70;;;;;;5015158;28;20073;-89
2022/04/21 08:49:33;;;;;;;3.05;2.17;;;17.60;96.70;;;;;;5016232;28;20065;-89
2022/04/21 08:52:02;;;;;;;3.80;2.00;;;17.60;96.70;;;;;;5040938;28;20050;-89
2022/04/21 08:54:31;;;;;;;2.20;1.88;;;17.60;96.70;;;;;;5010907;28;20038;-90
2022/04/21 08:57:00;;;;;;;3.10;1.80;;;17.60;96.70;;;;;;5022603;28;20140;-87
2022/04/21 08:59:28;;;;;;;3.70;1.90;;;17.70;96.70;;;;;;5016831;28;20207;-87
2022/04/21 09:01:59;;;;;;;2.45;1.90;;;17.80;96.70;;;;;;5014788;28;20038;-87
2022/04/21 09:04:29;;;;;;;2.72;1.90;;;17.70;96.70;;;;;;4999078;28;20056;-87
2022/04/21 09:07:14;;;;;;;1.90;1.73;;;17.70;96.70;;;;;;5002411;28;20053;-87
2022/04/21 09:10:04;;;;;;;2.10;1.77;;;17.80;96.70;;;;;;5025424;28;20124;-86
2022/04/21 09:12:33;;;;;;;1.75;1.27;;;17.90;96.70;;;;;;5017733;28;20046;-85
2022/04/21 09:15:12;;;;;;;2.17;1.55;;;18.00;96.70;;;;;;5020534;28;20526;-86
2022/04/21 09:17:43;;;;;;;1.20;1.08;;;17.90;96.70;;;;;;5030856;28;20762;-87
2022/04/21 09:20:13;;;;;;;1.90;1.10;;;18.00;96.70;;;;;;5027638;28;20721;-87
2022/04/21 09:22:52;;;;;;;1.73;1.17;;;18.20;96.70;;;;;;5045947;28;20048;-87
2022/04/21 09:25:22;;;;;;;1.60;1.30;;;18.20;96.70;;;;;;5035777;28;20044;-87
2022/04/21 09:27:50;;;;;;;3.22;1.30;;;18.50;96.70;;;;;;5027257;28;20526;-86
2022/04/21 09:30:19;;;;;;;0.70;0.60;;;18.60;96.70;;;;;;5027039;28;20514;-87
2022/04/21 09:32:52;;;;;;;1.35;0.95;;;18.80;96.70;;;;;;5011120;28;20594;-88
2022/04/21 09:35:21;;;;;;;2.17;0.85;;;18.90;96.70;;;;;;5045659;28;20116;-87
2022/04/21 09:37:52;;;;;;;1.60;1.00;;;18.90;96.70;;;;;;5045863;28;20053;-87
2022/04/21 09:40:21;;;;;;;1.60;0.73;;;19.00;96.70;;;;;;5022865;28;20136;-88
2022/04/21 09:42:54;;;;;;;1.20;1.00;;;19.00;96.70;;;;;;5020696;28;20524;-87
2022/04/21 09:48:19;;;;;;;1.23;0.85;;;19.10;96.70;;;;;;5022894;28;20605;-88
2022/04/21 09:50:53;;;;;;;1.52;0.95;;;19.30;96.70;;;;;;5015863;28;20092;-86
2022/04/21 09:53:24;;;;;;;2.30;0.98;;;19.20;96.70;;;;;;5020175;28;20065;-87
2022/04/21 09:56:06;;;;;;;2.03;1.00;;;19.00;96.70;;;;;;5029870;28;20054;-87
2022/04/21 09:58:38;;;;;;;1.20;0.77;;;19.00;96.70;;;;;;5014803;28;20053;-88
2022/04/21 10:01:07;;;;;;;1.45;0.90;;;19.10;96.70;;;;;;5017882;28;20108;-86
2022/04/21 10:03:41;;;;;;;1.00;0.90;;;19.10;96.70;;;;;;5017399;28;20194;-86
2022/04/21 10:06:10;;;;;;;1.30;1.00;;;19.20;96.70;;;;;;5008899;28;20054;-88
2022/04/21 10:08:41;;;;;;;1.75;1.00;;;19.10;96.70;;;;;;5019957;28;20056;-89
2022/04/21 10:11:11;;;;;;;1.42;1.13;;;19.20;96.70;;;;;;5021592;28;20041;-87
2022/04/21 10:13:41;;;;;;;1.17;0.73;;;19.30;96.70;;;;;;5021468;28;20533;-88
2022/04/21 10:16:09;;;;;;;0.88;0.70;;;19.60;96.70;;;;;;5042737;28;20099;-87
2022/04/21 10:18:38;;;;;;;1.67;1.05;;;19.80;96.70;;;;;;5033575;28;20054;-88
2022/04/21 10:21:09;;;;;;;1.40;1.08;;;19.70;96.70;;;;;;5022852;28;20049;-87
2022/04/21 10:23:43;;;;;;;1.08;0.85;;;19.60;96.70;;;;;;5029627;28;20053;-87
2022/04/21 10:26:11;;;;;;;2.40;1.08;;;19.70;96.70;;;;;;5019224;28;20100;-87
2022/04/21 10:29:09;;;;;;;1.02;0.90;;;19.80;96.70;;;;;;5017959;28;20045;-87
2022/04/21 10:31:46;;;;;;;2.22;1.02;;;19.90;96.70;;;;;;5017998;28;20038;-88
2022/04/21 10:34:31;;;;;;;1.92;0.90;;;19.90;96.70;;;;;;5022848;28;20583;-85
2022/04/21 10:37:11;;;;;;;1.30;1.00;;;20.10;96.70;;;;;;5028157;28;20057;-85
2022/04/21 10:40:01;;;;;;;1.90;0.90;;;20.00;96.70;;;;;;5010825;28;20054;-85
2022/04/21 10:42:29;;;;;;;0.90;0.70;;;19.70;96.70;;;;;;5021972;28;20057;-84
2022/04/21 10:44:58;;;;;;;1.92;0.95;;;19.70;96.70;;;;;;5001055;28;20115;-84
2022/04/21 10:47:34;;;;;;;1.38;0.90;;;19.80;96.70;;;;;;5003618;28;20075;-85
2022/04/21 10:50:15;;;;;;;0.95;0.88;;;19.80;96.70;;;;;;5017054;28;20051;-85
2022/04/21 10:58:50;;;;;;;2.25;0.70;;;20.20;96.70;;;;;;5022716;28;20495;-85
2022/04/21 11:01:27;;;;;;;0.70;0.63;;;20.30;96.70;;;;;;5023397;28;20053;-85
2022/04/21 11:04:10;;;;;;;0.98;0.88;;;20.10;96.70;;;;;;5004079;28;20046;-85
2022/04/21 11:06:41;;;;;;;0.95;0.60;;;20.20;96.70;;;;;;5042516;28;20049;-90
2022/04/21 11:09:29;;;;;;;0.77;0.70;;;20.30;96.70;;;;;;5010952;28;20042;-87
2022/04/21 11:11:59;;;;;;;1.63;0.90;;;20.40;96.70;;;;;;5024630;28;20046;-88
2022/04/21 11:14:31;;;;;;;1.55;1.05;;;20.50;96.70;;;;;;5021511;28;20438;-88
2022/04/21 11:17:00;;;;;;;0.68;0.68;;;20.50;96.70;;;;;;5013324;28;20050;-90
2022/04/21 11:19:45;;;;;;;0.80;0.80;;;20.50;96.70;;;;;;5025140;28;20037;-89
2022/04/21 11:22:39;;;;;;;1.90;0.93;;;20.50;96.70;;;;;;5004340;28;20495;-90
2022/04/21 11:25:08;;;;;;;1.85;0.90;;;20.70;96.70;;;;;;5037941;28;20041;-91
2022/04/21 11:27:45;;;;;;;1.13;0.70;;;20.60;96.70;;;;;;5025710;28;20045;-89
2022/04/21 11:30:14;;;;;;;3.97;0.98;;;20.50;96.70;;;;;;5021463;28;20819;-88
2022/04/21 11:32:50;;;;;;;2.30;1.00;;;20.60;96.70;;;;;;5041092;28;20490;-89
2022/04/21 11:35:21;;;;;;;1.00;0.80;;;20.70;96.70;;;;;;5025208;28;20055;-88
2022/04/21 11:37:54;;;;;;;1.33;0.70;;;20.80;96.70;;;;;;4999583;28;20046;-87
2022/04/21 11:40:25;;;;;;;2.47;0.80;;;20.90;96.70;;;;;;5019918;28;20113;-86
2022/04/21 11:42:56;;;;;;;1.10;0.88;;;21.10;96.70;;;;;;5017802;28;20069;-92
2022/04/21 11:45:25;;;;;;;2.35;0.80;;;21.10;96.70;;;;;;5020205;28;20545;-86
2022/04/21 11:47:54;;;;;;;1.23;0.95;;;21.00;96.70;;;;;;5041639;28;20068;-86
2022/04/21 11:50:26;;;;;;;1.55;0.70;;;21.10;96.70;;;;;;5013545;28;20047;-85
2022/04/21 11:52:56;;;;;;;0.75;0.73;;;21.00;96.70;;;;;;5019792;28;20115;-86
2022/04/21 11:55:26;;;;;;;1.52;0.68;;;21.10;96.70;;;;;;5034536;28;20045;-86
2022/04/21 11:57:57;;;;;;;1.23;0.80;;;21.00;96.70;;;;;;5024239;28;20683;-86
2022/04/21 12:08:48;;;;;;;1.77;0.70;;;20.40;96.70;;;;;;5017024;28;20045;-83
2022/04/21 12:11:18;;;;;;;1.05;0.70;;;20.40;96.70;;;;;;5042114;28;20048;-84
2022/04/21 12:13:49;;;;;;;1.30;0.73;;;20.40;96.70;;;;;;5018659;28;20050;-86
2022/04/21 12:16:38;;;;;;;1.20;0.82;;;20.30;96.70;;;;;;5024304;28;20060;-86
2022/04/21 12:19:14;;;;;;;1.17;0.82;;;20.30;96.70;;;;;;5019007;28;20042;-85
2022/04/21 12:21:43;;;;;;;0.95;0.85;;;20.20;96.70;;;;;;5024025;28;20045;-86
2022/04/21 12:24:17;;;;;;;0.80;0.80;;;20.20;96.70;;;;;;5019996;28;20136;-86
2022/04/21 12:26:50;;;;;;;1.10;0.77;;;20.10;96.70;;;;;;5017889;28;20041;-87
2022/04/21 12:29:21;;;;;;;1.40;0.80;;;20.00;96.70;;;;;;5026103;28;20819;-88
2022/04/21 12:31:51;;;;;;;1.02;0.80;;;20.00;96.70;;;;;;5042213;28;20530;-85
2022/04/21 12:34:26;;;;;;;1.55;0.93;;;20.00;96.70;;;;;;5023527;28;20483;-86
2022/04/21 12:36:57;;;;;;;2.15;0.80;;;19.90;96.70;;;;;;5013022;28;20096;-85
2022/04/21 12:39:27;;;;;;;1.20;0.70;;;19.70;96.70;;;;;;5040146;28;20058;-89
2022/04/21 12:42:19;;;;;;;0.60;0.50;;;19.50;96.70;;;;;;5016618;28;20064;-90
2022/04/21 12:44:50;;;;;;;1.10;0.80;;;19.40;96.70;;;;;;5017256;28;20500;-85
2022/04/21 12:47:19;;;;;;;1.45;0.80;;;19.20;96.70;;;;;;5039188;28;20449;-86
2022/04/21 12:49:52;;;;;;;1.30;0.70;;;19.10;96.70;;;;;;5010351;28;20041;-87
2022/04/21 12:52:35;;;;;;;1.35;0.80;;;19.00;96.70;;;;;;5027835;28;20115;-89
2022/04/21 12:55:07;;;;;;;2.65;0.90;;;18.90;96.70;;;;;;5017410;28;20064;-87
2022/04/21 12:57:36;;;;;;;1.40;0.80;;;18.80;96.70;;;;;;5026885;28;20037;-86
2022/04/21 13:00:08;;;;;;;1.08;0.88;;;18.70;96.70;;;;;;5017701;28;20046;-89
2022/04/21 13:02:36;;;;;;;1.88;0.90;;;18.60;96.70;;;;;;5035277;28;20060;-90
2022/04/21 13:05:05;;;;;;;1.90;1.27;;;18.60;96.70;;;;;;5035792;28;20048;-85
2022/04/21 13:07:33;;;;;;;1.83;0.90;;;18.60;96.70;;;;;;5020503;28;20149;-78
2022/04/21 13:10:01;;;;;;;1.27;0.80;;;18.50;96.70;;;;;;5022572;28;20451;-78
2022/04/21 13:12:30;;;;;;;1.92;1.10;;;18.40;96.70;;;;;;5018937;28;20041;-79
2022/04/21 13:14:58;;;;;;;1.15;0.88;;;18.40;96.70;;;;;;5022293;28;20069;-78
2022/04/21 13:17:28;;;;;;;3.30;1.40;;;18.40;96.70;;;;;;5012349;28;20077;-78
2022/04/21 13:19:56;;;;;;;1.55;0.95;;;18.30;96.70;;;;;;5021493;28;20165;-77
2022/04/21 13:22:24;;;;;;;1.75;0.85;;;18.30;96.70;;;;;;5013532;28;20069;-78
2022/04/21 13:24:53;;;;;;;1.30;0.80;;;18.30;96.70;;;;;;5013285;28;20128;-78
2022/04/21 13:27:28;;;;;;;3.20;0.98;;;18.20;96.70;;;;;;5016666;28;20040;-79
2022/04/21 13:29:56;;;;;;;4.30;1.23;;;18.10;96.70;;;;;;5038483;28;20052;-79
2022/04/21 13:35:13;;;;;;;3.42;1.77;;;17.90;96.70;;;;;;5010300;28;20085;-79
2022/04/21 13:37:41;;;;;;;2.03;1.40;;;17.80;96.70;;;;;;5013145;28;20038;-79
2022/04/21 13:40:10;;;;;;;2.60;1.30;;;17.70;96.70;;;;;;5027509;28;20127;-78
2022/04/21 13:42:38;;;;;;;2.50;1.40;;;17.50;96.70;;;;;;5024534;28;20053;-78
2022/04/21 13:45:07;;;;;;;3.92;1.42;;;17.40;96.70;;;;;;5012993;28;20037;-79
2022/04/21 13:47:56;;;;;;;1.67;1.40;;;17.40;96.70;;;;;;5009397;28;20529;-78
2022/04/21 13:50:27;;;;;;;2.83;1.17;;;17.40;96.70;;;;;;5025344;28;20077;-78
2022/04/21 13:52:55;;;;;;;1.00;0.90;;;17.40;96.70;;;;;;5021118;28;20041;-78
2022/04/21 13:55:24;;;;;;;1.95;1.10;;;17.40;96.70;;;;;;5016780;28;20041;-79
2022/04/21 13:57:53;;;;;;;1.13;1.02;;;17.40;96.70;;;;;;5020139;28;20452;-78